createdAt,value
2023-08-24T00:01:36.726Z,100809.84
2023-08-24T00:04:05.632Z,100813.75
2023-08-24T00:06:33.531Z,100807.97
2023-08-24T00:09:02.846Z,100807.31
2023-08-24T00:11:31.610Z,100811.00
2023-08-24T00:13:59.373Z,100812.44
2023-08-24T00:16:27.147Z,100809.31
2023-08-24T00:18:54.974Z,100810.38
2023-08-24T00:21:24.918Z,100806.03
2023-08-24T00:23:53.753Z,100807.06
2023-08-24T00:26:23.247Z,100796.56
2023-08-24T00:28:50.934Z,100794.91
2023-08-24T00:31:19.625Z,100787.06
2023-08-24T00:33:51.653Z,100789.13
2023-08-24T00:36:20.080Z,100786.84
2023-08-24T00:38:51.920Z,100787.03
2023-08-24T00:41:20.100Z,100790.94
2023-08-24T00:43:51.063Z,100794.00
2023-08-24T00:46:19.670Z,100795.19
2023-08-24T00:48:49.272Z,100791.28
2023-08-24T00:51:17.556Z,100797.81
2023-08-24T00:53:45.393Z,100795.56
2023-08-24T00:56:13.526Z,100787.91
2023-08-24T00:58:41.959Z,100788.34
2023-08-24T01:01:11.159Z,100790.53
2023-08-24T01:03:38.901Z,100797.72
2023-08-24T01:06:08.008Z,100799.75
2023-08-24T01:08:36.014Z,100797.50
2023-08-24T01:11:10.930Z,100792.34
2023-08-24T01:13:48.063Z,100790.88
2023-08-24T01:16:22.637Z,100790.25
2023-08-24T01:18:51.547Z,100801.28
2023-08-24T01:21:19.910Z,100793.63
2023-08-24T01:23:56.106Z,100795.69
2023-08-24T01:26:25.675Z,100797.72
2023-08-24T01:28:54.215Z,100792.75
2023-08-24T01:31:22.008Z,100791.31
2023-08-24T01:33:49.989Z,100795.19
2023-08-24T01:36:18.903Z,100791.03
2023-08-24T01:38:51.507Z,100789.59
2023-08-24T01:41:23.357Z,100787.31
2023-08-24T01:43:55.915Z,100783.16
2023-08-24T01:46:26.244Z,100785.03
2023-08-24T01:48:55.288Z,100772.06
2023-08-24T01:51:25.479Z,100771.44
2023-08-24T01:53:54.084Z,100762.22
2023-08-24T01:56:22.482Z,100759.75
2023-08-24T01:58:51.961Z,100755.25
2023-08-24T02:01:19.775Z,100754.00
2023-08-24T02:03:47.728Z,100755.81
2023-08-24T02:06:15.594Z,100757.84
2023-08-24T02:08:45.372Z,100752.06
2023-08-24T02:11:13.104Z,100753.09
2023-08-24T02:13:41.245Z,100751.63
2023-08-24T02:16:10.975Z,100754.66
2023-08-24T02:18:38.946Z,100754.84
2023-08-24T02:21:11.478Z,100757.91
2023-08-24T02:23:39.446Z,100752.75
2023-08-24T02:26:07.160Z,100750.47
2023-08-24T02:28:35.439Z,100757.84
2023-08-24T02:31:04.216Z,100745.53
2023-08-24T02:33:35.700Z,100752.88
2023-08-24T02:36:03.386Z,100747.72
2023-08-24T02:38:31.126Z,100746.09
2023-08-24T02:41:05.887Z,100747.13
2023-08-24T02:43:34.150Z,100743.81
2023-08-24T02:46:04.306Z,100729.00
2023-08-24T02:48:32.226Z,100736.38
2023-08-24T02:51:02.159Z,100732.06
2023-08-24T02:53:29.826Z,100733.06
2023-08-24T02:55:58.184Z,100725.25
2023-08-24T02:58:26.053Z,100723.59
2023-08-24T03:00:53.917Z,100730.78
2023-08-24T03:03:21.816Z,100729.13
2023-08-24T03:05:56.718Z,100732.63
2023-08-24T03:08:26.168Z,100728.13
2023-08-24T03:10:54.536Z,100730.78
2023-08-24T03:13:22.503Z,100717.44
2023-08-24T03:15:50.502Z,100725.91
2023-08-24T03:18:18.935Z,100730.66
2023-08-24T03:20:47.990Z,100734.22
2023-08-24T03:23:16.739Z,100729.97
2023-08-24T03:25:46.089Z,100727.75
2023-08-24T03:28:15.347Z,100735.56
2023-08-24T03:30:49.222Z,100734.56
2023-08-24T03:33:18.222Z,100732.06
2023-08-24T03:35:46.123Z,100735.56
2023-08-24T03:38:13.884Z,100732.91
2023-08-24T03:40:41.919Z,100728.41
2023-08-24T03:43:11.151Z,100727.38
2023-08-24T03:45:39.081Z,100740.97
2023-08-24T03:48:07.445Z,100741.38
2023-08-24T03:50:35.306Z,100740.84
2023-08-24T03:53:03.388Z,100739.41
2023-08-24T03:55:31.205Z,100743.38
2023-08-24T03:57:59.270Z,100737.63
2023-08-24T04:00:29.182Z,100746.28
2023-08-24T04:02:57.035Z,100752.06
2023-08-24T04:05:27.257Z,100754.97
2023-08-24T04:07:54.990Z,100750.06
2023-08-24T04:10:22.908Z,100749.31
2023-08-24T04:12:50.655Z,100750.41
2023-08-24T04:15:18.538Z,100747.16
2023-08-24T04:17:47.737Z,100747.00
2023-08-24T04:20:15.639Z,100737.19
2023-08-24T04:22:43.523Z,100732.91
2023-08-24T04:25:11.286Z,100729.25
2023-08-24T04:27:39.370Z,100725.84
2023-08-24T04:30:12.627Z,100731.41
2023-08-24T04:32:40.808Z,100723.59
2023-08-24T04:35:11.258Z,100730.81
2023-08-24T04:37:39.494Z,100732.28
2023-08-24T04:40:09.265Z,100748.34
2023-08-24T04:42:37.090Z,100754.13
2023-08-24T04:45:05.211Z,100764.41
2023-08-24T04:47:32.917Z,100770.81
2023-08-24T04:50:00.811Z,100762.59
2023-08-24T04:52:29.854Z,100764.06
2023-08-24T04:54:57.631Z,100757.69
2023-08-24T04:57:25.828Z,100759.75
2023-08-24T04:59:53.592Z,100769.22
2023-08-24T05:02:21.307Z,100760.81
2023-08-24T05:04:49.839Z,100774.41
2023-08-24T05:07:18.592Z,100774.81
2023-08-24T05:09:47.781Z,100778.53
2023-08-24T05:12:15.473Z,100783.34
2023-08-24T05:14:43.150Z,100785.41
2023-08-24T05:17:10.881Z,100779.25
2023-08-24T05:19:38.567Z,100764.66
2023-08-24T05:22:06.294Z,100766.50
2023-08-24T05:24:34.106Z,100773.97
2023-08-24T05:27:03.155Z,100752.13
2023-08-24T05:29:30.847Z,100734.44
2023-08-24T05:31:58.588Z,100723.97
2023-08-24T05:34:26.259Z,100715.94
2023-08-24T05:36:53.951Z,100706.91
2023-08-24T05:39:21.838Z,100693.50
2023-08-24T05:41:52.911Z,100691.84
2023-08-24T05:44:22.404Z,100685.47
2023-08-24T05:46:50.258Z,100674.16
2023-08-24T05:49:17.981Z,100676.81
2023-08-24T05:51:45.836Z,100685.47
2023-08-24T05:54:14.472Z,100692.50
2023-08-24T05:56:42.158Z,100689.81
2023-08-24T05:59:09.971Z,100685.03
2023-08-24T06:01:40.089Z,100682.16
2023-08-24T06:04:08.016Z,100686.28
2023-08-24T06:06:35.824Z,100691.19
2023-08-24T06:09:06.335Z,100689.31
2023-08-24T06:11:35.786Z,100687.69
2023-08-24T06:14:03.614Z,100696.94
2023-08-24T06:16:31.663Z,100700.63
2023-08-24T06:19:01.031Z,100694.84
2023-08-24T06:21:28.900Z,100689.91
2023-08-24T06:23:56.574Z,100682.66
2023-08-24T06:26:24.324Z,100683.22
2023-08-24T06:28:51.979Z,100683.59
2023-08-24T06:31:19.663Z,100676.94
2023-08-24T06:33:47.693Z,100676.69
2023-08-24T06:36:16.733Z,100674.63
2023-08-24T06:38:44.416Z,100671.44
2023-08-24T06:41:13.520Z,100669.91
2023-08-24T06:43:41.563Z,100678.00
2023-08-24T06:46:10.058Z,100670.63
2023-08-24T06:48:38.273Z,100667.38
2023-08-24T06:51:06.463Z,100667.19
2023-08-24T06:53:35.578Z,100656.44
2023-08-24T06:56:04.990Z,100660.66
2023-08-24T06:58:32.935Z,100656.38
2023-08-24T07:01:00.689Z,100647.63
2023-08-24T07:03:28.477Z,100640.97
2023-08-24T07:05:56.258Z,100640.97
2023-08-24T07:08:23.948Z,100643.78
2023-08-24T07:10:55.452Z,100641.78
2023-08-24T07:13:23.496Z,100632.94
2023-08-24T07:15:52.059Z,100623.50
2023-08-24T07:18:19.838Z,100615.22
2023-08-24T07:20:50.834Z,100610.97
2023-08-24T07:23:18.578Z,100617.25
2023-08-24T07:25:46.226Z,100614.88
2023-08-24T07:28:15.617Z,100605.19
2023-08-24T07:30:43.329Z,100608.28
2023-08-24T07:33:11.055Z,100611.88
2023-08-24T07:35:38.783Z,100608.47
2023-08-24T07:38:06.610Z,100604.56
2023-08-24T07:40:34.340Z,100606.06
2023-08-24T07:43:01.990Z,100600.69
2023-08-24T07:45:31.081Z,100597.78
2023-08-24T07:47:58.986Z,100600.00
2023-08-24T07:50:26.673Z,100598.63
2023-08-24T07:52:57.421Z,100605.03
2023-08-24T07:55:26.004Z,100608.06
2023-08-24T07:57:54.044Z,100603.31
2023-08-24T08:00:22.145Z,100614.66
2023-08-24T08:02:54.207Z,100608.16
2023-08-24T08:05:30.614Z,100611.59
2023-08-24T08:07:58.385Z,100616.03
2023-08-24T08:10:26.374Z,100620.50
2023-08-24T08:12:54.153Z,100612.00
2023-08-24T08:15:22.106Z,100614.00
2023-08-24T08:17:50.909Z,100613.91
2023-08-24T08:20:20.330Z,100603.88
2023-08-24T08:22:48.269Z,100597.97
2023-08-24T08:25:18.786Z,100596.59
2023-08-24T08:27:46.829Z,100602.22
2023-08-24T08:30:14.973Z,100604.38
2023-08-24T08:32:42.811Z,100599.25
2023-08-24T08:35:11.417Z,100590.47
2023-08-24T08:37:40.458Z,100583.22
2023-08-24T08:40:12.568Z,100580.75
2023-08-24T08:42:40.900Z,100588.88
2023-08-24T08:45:11.589Z,100600.00
2023-08-24T08:47:39.716Z,100603.09
2023-08-24T08:50:10.203Z,100598.19
2023-08-24T08:52:38.060Z,100594.34
2023-08-24T08:55:11.314Z,100591.88
2023-08-24T08:57:41.017Z,100581.88
2023-08-24T09:00:11.233Z,100579.56
2023-08-24T09:02:39.495Z,100574.78
2023-08-24T09:05:08.038Z,100571.03
2023-08-24T09:07:36.693Z,100562.84
2023-08-24T09:10:08.646Z,100564.16
2023-08-24T09:12:37.112Z,100553.03
2023-08-24T09:15:07.227Z,100546.25
2023-08-24T09:17:36.529Z,100534.88
2023-08-24T09:20:10.878Z,100534.53
2023-08-24T09:22:40.751Z,100537.75
2023-08-24T09:25:11.478Z,100529.06
2023-08-24T09:27:39.255Z,100523.09
2023-08-24T09:30:08.397Z,100510.72
2023-08-24T09:32:36.181Z,100512.09
2023-08-24T09:35:06.754Z,100516.50
2023-08-24T09:37:36.443Z,100508.13
2023-08-24T09:40:08.772Z,100507.94
2023-08-24T09:42:42.797Z,100506.13
2023-08-24T09:45:14.226Z,100516.97
2023-08-24T09:47:47.395Z,100507.84
2023-08-24T09:52:44.473Z,100497.72
2023-08-24T09:55:14.105Z,100486.69
2023-08-24T09:57:44.238Z,100494.41
2023-08-24T10:00:15.361Z,100493.19
2023-08-24T10:02:51.446Z,100481.66
2023-08-24T10:07:55.375Z,100478.28
2023-08-24T10:10:25.923Z,100478.16
2023-08-24T10:13:01.606Z,100477.16
2023-08-24T10:15:29.774Z,100471.53
2023-08-24T10:17:58.500Z,100470.22
2023-08-24T10:20:27.123Z,100451.88
2023-08-24T10:22:56.877Z,100434.00
2023-08-24T10:25:25.781Z,100433.19
2023-08-24T10:27:55.536Z,100440.81
2023-08-24T10:30:23.503Z,100451.66
2023-08-24T10:32:54.749Z,100437.25
2023-08-24T10:35:24.357Z,100420.44
2023-08-24T10:37:55.135Z,100430.50
2023-08-24T10:40:33.728Z,100437.81
2023-08-24T10:43:06.386Z,100442.16
2023-08-24T10:45:58.846Z,100447.06
2023-08-24T10:48:27.692Z,100447.84
2023-08-24T10:51:21.724Z,100448.66
2023-08-24T10:53:53.289Z,100449.22
2023-08-24T10:56:21.696Z,100445.41
2023-08-24T10:59:15.175Z,100455.72
2023-08-24T11:01:44.155Z,100450.56
2023-08-24T11:04:14.031Z,100440.78
2023-08-24T11:06:56.101Z,100426.41
2023-08-24T11:09:25.382Z,100419.59
2023-08-24T11:12:00.729Z,100413.09
2023-08-24T11:14:31.330Z,100403.59
2023-08-24T11:17:01.165Z,100393.31
2023-08-24T11:19:29.214Z,100388.16
2023-08-24T11:21:56.986Z,100388.16
2023-08-24T11:24:25.005Z,100384.06
2023-08-24T11:26:53.515Z,100371.56
2023-08-24T11:29:21.547Z,100368.06
2023-08-24T11:31:50.635Z,100362.63
2023-08-24T11:34:18.417Z,100366.72
2023-08-24T11:36:48.462Z,100360.22
2023-08-24T11:39:21.170Z,100347.19
2023-08-24T11:41:59.698Z,100343.63
2023-08-24T11:44:29.337Z,100339.56
2023-08-24T11:47:00.744Z,100328.72
2023-08-24T11:49:30.377Z,100317.56
2023-08-24T11:51:59.336Z,100315.38
2023-08-24T11:54:27.363Z,100318.63
2023-08-24T11:56:55.405Z,100314.00
2023-08-24T11:59:23.423Z,100307.22
2023-08-24T12:01:51.735Z,100306.66
2023-08-24T12:04:21.130Z,100301.47
2023-08-24T12:06:48.878Z,100299.84
2023-08-24T12:09:17.293Z,100297.38
2023-08-24T12:11:45.000Z,100293.00
2023-08-24T12:14:19.454Z,100292.41
2023-08-24T12:16:47.266Z,100294.84
2023-08-24T12:19:14.922Z,100288.78
2023-08-24T12:21:47.549Z,100289.34
2023-08-24T12:24:16.111Z,100277.59
2023-08-24T12:26:43.772Z,100275.63
2023-08-24T12:29:11.493Z,100285.91
2023-08-24T12:31:44.436Z,100292.06
2023-08-24T12:34:12.554Z,100287.09
2023-08-24T12:36:42.369Z,100291.13
2023-08-24T12:39:14.732Z,100281.56
2023-08-24T12:41:42.642Z,100273.88
2023-08-24T12:44:12.728Z,100262.13
2023-08-24T12:46:42.416Z,100279.75
2023-08-24T12:49:10.309Z,100275.94
2023-08-24T12:51:38.472Z,100275.69
2023-08-24T12:54:07.165Z,100281.38
2023-08-24T12:56:37.914Z,100278.66
2023-08-24T12:59:05.891Z,100270.00
2023-08-24T13:01:33.924Z,100269.53
2023-08-24T13:04:01.640Z,100261.19
2023-08-24T13:06:29.294Z,100261.00
2023-08-24T13:08:57.071Z,100252.91
2023-08-24T13:11:25.456Z,100253.38
2023-08-24T13:13:54.541Z,100259.31
2023-08-24T13:16:22.243Z,100254.31
2023-08-24T13:18:49.945Z,100254.16
2023-08-24T13:21:18.742Z,100241.84
2023-08-24T13:23:46.658Z,100249.94
2023-08-24T13:26:20.849Z,100250.19
2023-08-24T13:28:48.820Z,100246.75
2023-08-24T13:31:18.201Z,100228.94
2023-08-24T13:33:46.723Z,100235.75
2023-08-24T13:36:14.585Z,100212.06
2023-08-24T13:38:42.357Z,100198.50
2023-08-24T13:41:10.006Z,100186.47
2023-08-24T13:43:37.738Z,100180.53
2023-08-24T13:46:05.523Z,100182.81
2023-08-24T13:48:35.605Z,100186.88
2023-08-24T13:51:03.388Z,100180.63
2023-08-24T13:53:31.108Z,100171.22
2023-08-24T13:55:58.773Z,100171.00
2023-08-24T13:58:26.530Z,100176.84
2023-08-24T14:00:57.519Z,100180.91
2023-08-24T14:03:25.749Z,100181.06
2023-08-24T14:05:58.639Z,100185.25
2023-08-24T14:08:26.960Z,100192.75
2023-08-24T14:10:55.016Z,100195.34
2023-08-24T14:13:22.857Z,100179.72
2023-08-24T14:15:51.484Z,100183.34
2023-08-24T14:18:19.677Z,100185.88
2023-08-24T14:20:47.562Z,100182.69
2023-08-24T14:23:16.654Z,100186.47
2023-08-24T14:25:44.664Z,100182.56
2023-08-24T14:28:12.702Z,100187.44
2023-08-24T14:30:41.253Z,100188.91
2023-08-24T14:33:08.984Z,100185.97
2023-08-24T14:35:36.715Z,100188.84
2023-08-24T14:38:04.884Z,100184.38
2023-08-24T14:40:34.007Z,100184.84
2023-08-24T14:43:01.715Z,100185.84
2023-08-24T14:45:29.370Z,100182.19
2023-08-24T14:47:57.447Z,100170.34
2023-08-24T14:50:25.494Z,100168.03
2023-08-24T14:52:53.187Z,100154.25
2023-08-24T14:55:20.866Z,100151.88
2023-08-24T14:57:54.054Z,100148.16
2023-08-24T15:00:22.205Z,100154.50
2023-08-24T15:02:50.040Z,100148.09
2023-08-24T15:05:19.610Z,100152.75
2023-08-24T15:07:48.605Z,100156.06
2023-08-24T15:10:17.077Z,100161.81
2023-08-24T15:12:45.021Z,100160.22
2023-08-24T15:15:17.832Z,100166.22
2023-08-24T15:17:46.561Z,100171.94
2023-08-24T15:20:14.875Z,100165.72
2023-08-24T15:22:42.545Z,100159.75
2023-08-24T15:25:10.641Z,100151.31
2023-08-24T15:27:38.775Z,100138.00
2023-08-24T15:30:08.869Z,100128.22
2023-08-24T15:32:37.994Z,100125.72
2023-08-24T15:35:06.653Z,100120.78
2023-08-24T15:37:34.365Z,100098.25
2023-08-24T15:40:04.746Z,100093.88
2023-08-24T15:42:32.504Z,100096.06
2023-08-24T15:45:00.419Z,100086.81
2023-08-24T15:47:28.246Z,100089.53
2023-08-24T15:49:57.328Z,100103.91
2023-08-24T15:52:25.280Z,100106.91
2023-08-24T15:54:53.417Z,100109.66
2023-08-24T15:57:21.237Z,100112.91
2023-08-24T15:59:49.101Z,100109.44
2023-08-24T16:02:16.864Z,100106.72
2023-08-24T16:04:44.575Z,100119.22
2023-08-24T16:07:14.556Z,100113.53
2023-08-24T16:09:42.278Z,100108.69
2023-08-24T16:12:10.098Z,100109.22
2023-08-24T16:14:38.100Z,100106.78
2023-08-24T16:17:06.028Z,100101.94
2023-08-24T16:19:33.900Z,100115.75
2023-08-24T16:22:01.684Z,100101.41
2023-08-24T16:24:30.835Z,100098.19
2023-08-24T16:26:58.698Z,100100.06
2023-08-24T16:29:28.041Z,100097.63
2023-08-24T16:31:55.891Z,100100.38
2023-08-24T16:34:24.197Z,100094.97
2023-08-24T16:36:51.975Z,100090.34
2023-08-24T16:39:19.725Z,100096.63
2023-08-24T16:41:49.062Z,100090.66
2023-08-24T16:44:16.840Z,100087.16
2023-08-24T16:46:44.583Z,100090.16
2023-08-24T16:49:12.322Z,100081.75
2023-08-24T16:51:39.981Z,100079.59
2023-08-24T16:54:07.920Z,100069.00
2023-08-24T16:56:35.836Z,100066.28
2023-08-24T16:59:04.933Z,100072.78
2023-08-24T17:01:32.897Z,100069.28
2023-08-24T17:04:00.736Z,100064.13
2023-08-24T17:06:30.106Z,100063.59
2023-08-24T17:08:58.913Z,100063.31
2023-08-24T17:11:26.557Z,100057.91
2023-08-24T17:13:55.004Z,100056.25
2023-08-24T17:16:24.211Z,100049.78
2023-08-24T17:18:52.021Z,100048.97
2023-08-24T17:21:19.825Z,100050.56
2023-08-24T17:23:47.577Z,100047.81
2023-08-24T17:26:15.387Z,100043.75
2023-08-24T17:28:43.411Z,100038.91
2023-08-24T17:31:11.548Z,100034.00
2023-08-24T17:33:43.451Z,100032.38
2023-08-24T17:36:11.216Z,100028.34
2023-08-24T17:38:38.958Z,100019.94
2023-08-24T17:41:08.598Z,100014.25
2023-08-24T17:43:38.474Z,100021.00
2023-08-24T17:46:06.475Z,100014.50
2023-08-24T17:48:34.992Z,100013.66
2023-08-24T17:51:06.768Z,100015.03
2023-08-24T17:53:35.655Z,100023.66
2023-08-24T17:56:04.434Z,100012.56
2023-08-24T17:58:32.268Z,100021.47
2023-08-24T18:01:00.147Z,100019.31
2023-08-24T18:03:27.958Z,100019.03
2023-08-24T18:05:57.230Z,100012.53
2023-08-24T18:08:31.769Z,100006.28
2023-08-24T18:11:07.047Z,100014.13
2023-08-24T18:13:34.941Z,100012.47
2023-08-24T18:16:03.502Z,100009.72
2023-08-24T18:18:33.123Z,100021.31
2023-08-24T18:21:04.277Z,100014.53
2023-08-24T18:23:33.327Z,100016.41
2023-08-24T18:26:01.171Z,100014.72
2023-08-24T18:28:28.905Z,99993.34
2023-08-24T18:30:58.990Z,99983.34
2023-08-24T18:33:26.977Z,99976.84
2023-08-24T18:35:55.326Z,99990.31
2023-08-24T18:38:23.879Z,100005.69
2023-08-24T18:40:55.011Z,100010.00
2023-08-24T18:43:23.111Z,100016.16
2023-08-24T18:46:01.464Z,100020.47
2023-08-24T18:48:29.168Z,100012.06
2023-08-24T18:50:56.889Z,100012.59
2023-08-24T18:53:24.988Z,100014.13
2023-08-24T18:55:56.584Z,100021.94
2023-08-24T18:58:24.633Z,100018.38
2023-08-24T19:00:54.654Z,100013.50
2023-08-24T19:03:22.448Z,100005.91
2023-08-24T19:05:50.154Z,100009.16
2023-08-24T19:08:18.718Z,100005.31
2023-08-24T19:10:46.657Z,100010.16
2023-08-24T19:13:15.781Z,100024.19
2023-08-24T19:15:43.805Z,100011.44
2023-08-24T19:18:12.362Z,100016.31
2023-08-24T19:20:42.873Z,100027.59
2023-08-24T19:23:11.357Z,100030.53
2023-08-24T19:25:39.459Z,100040.78
2023-08-24T19:28:07.682Z,100041.88
2023-08-24T19:30:39.206Z,100041.03
2023-08-24T19:33:07.346Z,100037.53
2023-08-24T19:35:35.449Z,100023.22
2023-08-24T19:38:03.151Z,100016.19
2023-08-24T19:40:30.817Z,100003.22
2023-08-24T19:42:58.504Z,99997.28
2023-08-24T19:45:26.308Z,99995.09
2023-08-24T19:47:56.026Z,99988.31
2023-08-24T19:50:23.997Z,99991.28
2023-08-24T19:52:52.101Z,99994.22
2023-08-24T19:55:19.946Z,99991.22
2023-08-24T19:57:47.863Z,99989.06
2023-08-24T20:00:17.289Z,99986.03
2023-08-24T20:02:45.227Z,99979.78
2023-08-24T20:05:14.572Z,99976.78
2023-08-24T20:07:48.525Z,99981.84
2023-08-24T20:10:19.160Z,99967.75
2023-08-24T20:12:48.417Z,99965.75
2023-08-24T20:15:16.131Z,99955.97
2023-08-24T20:17:45.479Z,99956.66
2023-08-24T20:20:18.225Z,99949.53
2023-08-24T20:22:47.317Z,99949.41
2023-08-24T20:25:15.524Z,99947.16
2023-08-24T20:27:43.324Z,99942.41
2023-08-24T20:30:12.044Z,99943.66
2023-08-24T20:32:39.876Z,99942.72
2023-08-24T20:35:08.342Z,99938.84
2023-08-24T20:37:37.486Z,99940.31
2023-08-24T20:40:05.806Z,99941.56
2023-08-24T20:42:33.498Z,99948.41
2023-08-24T20:45:01.450Z,99956.09
2023-08-24T20:47:29.192Z,99950.31
2023-08-24T20:49:57.151Z,99949.69
2023-08-24T20:52:25.144Z,99955.19
2023-08-24T20:54:54.496Z,99958.03
2023-08-24T20:57:23.504Z,99958.44
2023-08-24T20:59:51.302Z,99957.78
2023-08-24T21:02:19.110Z,99959.81
2023-08-24T21:04:47.920Z,99957.84
2023-08-24T21:07:15.611Z,99949.69
2023-08-24T21:09:43.394Z,99947.97
2023-08-24T21:12:12.530Z,99951.38
2023-08-24T21:14:40.216Z,99949.66
2023-08-24T21:17:07.902Z,99933.69
2023-08-24T21:19:35.642Z,99950.53
2023-08-24T21:22:03.354Z,99949.06
2023-08-24T21:24:31.039Z,99947.31
2023-08-24T21:26:59.195Z,99950.69
2023-08-24T21:29:28.466Z,99950.59
2023-08-24T21:31:56.267Z,99945.91
2023-08-24T21:34:24.061Z,99945.00
2023-08-24T21:36:51.898Z,99945.50
2023-08-24T21:39:20.213Z,99932.78
2023-08-24T21:41:49.001Z,99938.88
2023-08-24T21:44:16.656Z,99932.59
2023-08-24T21:46:45.756Z,99937.59
2023-08-24T21:49:13.417Z,99938.06
2023-08-24T21:51:41.173Z,99927.81
2023-08-24T21:54:09.012Z,99944.97
2023-08-24T21:56:36.704Z,99941.22
2023-08-24T21:59:04.487Z,99931.88
2023-08-24T22:01:32.884Z,99928.28
2023-08-24T22:04:01.992Z,99931.88
2023-08-24T22:06:29.752Z,99929.28
2023-08-24T22:08:57.418Z,99934.75
2023-08-24T22:11:25.264Z,99940.91
2023-08-24T22:13:52.961Z,99943.59
2023-08-24T22:16:20.739Z,99955.16
2023-08-24T22:18:48.498Z,99947.94
2023-08-24T22:21:17.546Z,99957.63
2023-08-24T22:23:45.227Z,99970.44
2023-08-24T22:26:12.948Z,99978.41
2023-08-24T22:28:40.767Z,99982.63
2023-08-24T22:31:08.722Z,99987.31
2023-08-24T22:33:38.769Z,99984.50
2023-08-24T22:36:07.521Z,99976.59
2023-08-24T22:38:36.532Z,99980.22
2023-08-24T22:41:05.148Z,99978.25
2023-08-24T22:43:32.944Z,99988.03
2023-08-24T22:46:00.748Z,99994.91
2023-08-24T22:48:28.921Z,100001.00
2023-08-24T22:50:56.630Z,99999.81
2023-08-24T22:53:24.412Z,100002.72
2023-08-24T22:55:53.516Z,99997.84
2023-08-24T22:58:21.168Z,99995.97
2023-08-24T23:00:48.826Z,100000.53
2023-08-24T23:03:16.489Z,100003.75
2023-08-24T23:05:44.418Z,100004.34
2023-08-24T23:08:12.090Z,99999.59
2023-08-24T23:10:39.789Z,99993.19
2023-08-24T23:13:08.834Z,100001.81
2023-08-24T23:15:36.649Z,99997.00
2023-08-24T23:18:04.898Z,99993.88
2023-08-24T23:20:32.911Z,99987.19
2023-08-24T23:23:00.648Z,99993.97
2023-08-24T23:25:28.313Z,99995.63
2023-08-24T23:27:56.636Z,99993.53
2023-08-24T23:30:26.537Z,99998.41
2023-08-24T23:32:54.316Z,99993.63
2023-08-24T23:35:22.001Z,99987.81
2023-08-24T23:37:51.540Z,99978.22
2023-08-24T23:40:19.938Z,99981.50
2023-08-24T23:42:47.599Z,99983.69
2023-08-24T23:45:15.332Z,99975.75
2023-08-24T23:47:44.335Z,99978.31
2023-08-24T23:50:12.028Z,99962.97
2023-08-24T23:52:39.699Z,99951.28
2023-08-24T23:55:08.654Z,99940.75
2023-08-24T23:57:36.337Z,99934.00
